Time;durP1;ratioP1;P1;durP2;ratioP2;P2;SDS_P1;SDS_P2;PMS_P1;PMS_P2;Temp;Humidity;BMP_temperature;BMP_pressure;BME280_temperature;BME280_humidity;BME280_pressure;Samples;Min_cycle;Max_cycle;Signal;HPM_P1;HPM_P2
2023/09/08 00:01:38;;;;;;;18.48;12.00;;;;;;;17.13;100.00;101173.44;5092202;28;20056;-77
2023/09/08 00:04:04;;;;;;;16.15;11.65;;;;;;;17.09;100.00;101167.13;5093216;28;20066;-76
2023/09/08 00:06:34;;;;;;;16.15;11.18;;;;;;;16.90;100.00;101132.88;5093524;28;20030;-75
2023/09/08 00:09:00;;;;;;;16.38;10.45;;;;;;;16.92;100.00;101141.03;5092670;28;20039;-76
2023/09/08 00:11:25;;;;;;;15.93;10.75;;;;;;;17.08;100.00;101166.31;5091215;28;20024;-76
2023/09/08 00:14:06;;;;;;;16.10;11.77;;;;;;;17.08;100.00;101162.63;5092801;28;20426;-75
2023/09/08 00:16:31;;;;;;;17.40;11.10;;;;;;;16.98;100.00;101162.84;5091192;28;20036;-75
2023/09/08 00:19:01;;;;;;;17.77;11.82;;;;;;;16.96;100.00;101153.91;5093826;28;20479;-75
2023/09/08 00:21:27;;;;;;;17.13;11.02;;;;;;;16.97;100.00;101148.94;5092596;28;20485;-75
2023/09/08 00:23:53;;;;;;;19.05;11.80;;;;;;;16.97;100.00;101148.94;5092532;28;20024;-76
2023/09/08 00:26:20;;;;;;;14.48;10.57;;;;;;;16.92;100.00;101147.59;5093620;28;20031;-76
2023/09/08 00:28:47;;;;;;;18.85;12.27;;;;;;;16.90;100.00;101152.28;5092531;28;20035;-75
2023/09/08 00:31:12;;;;;;;17.23;11.43;;;;;;;16.89;100.00;101154.41;5093978;28;20032;-76
2023/09/08 00:33:39;;;;;;;18.52;12.38;;;;;;;16.90;100.00;101161.75;5093274;28;20032;-77
2023/09/08 00:36:06;;;;;;;21.58;12.63;;;;;;;16.88;100.00;101160.69;5093643;28;20020;-76
2023/09/08 00:38:31;;;;;;;18.20;11.45;;;;;;;16.88;100.00;101158.59;5093854;28;20053;-76
2023/09/08 00:41:00;;;;;;;20.67;11.25;;;;;;;16.67;100.00;101119.63;5093024;28;20040;-75
2023/09/08 00:43:27;;;;;;;18.35;10.10;;;;;;;16.87;100.00;101156.22;5093862;28;20028;-76
2023/09/08 00:45:54;;;;;;;18.27;11.38;;;;;;;16.76;100.00;101150.38;5092334;28;20423;-75
2023/09/08 00:48:21;;;;;;;18.17;12.45;;;;;;;16.65;100.00;101135.91;5075657;28;20027;-76
2023/09/08 00:50:49;;;;;;;15.65;11.70;;;;;;;16.68;100.00;101137.75;5075381;28;20024;-76
2023/09/08 00:53:14;;;;;;;22.05;12.10;;;;;;;16.65;100.00;101144.56;5093359;28;20128;-77
2023/09/08 00:55:41;;;;;;;18.58;11.65;;;;;;;16.63;100.00;101150.03;5075412;28;20492;-76
2023/09/08 00:58:06;;;;;;;19.48;12.13;;;;;;;16.58;100.00;101150.78;5093319;28;20111;-75
2023/09/08 01:00:33;;;;;;;14.65;11.32;;;;;;;16.57;100.00;101152.09;5095188;28;20446;-76
2023/09/08 01:02:59;;;;;;;14.63;11.20;;;;;;;16.50;100.00;101151.22;5097653;28;20493;-77
2023/09/08 01:05:26;;;;;;;18.33;12.75;;;;;;;16.47;100.00;101151.47;5096305;28;20469;-76
2023/09/08 01:07:52;;;;;;;19.00;12.32;;;;;;;16.43;100.00;101151.72;5096348;28;20105;-75
2023/09/08 01:10:19;;;;;;;19.08;12.48;;;;;;;16.42;100.00;101144.38;5097119;28;20457;-76
2023/09/08 01:12:44;;;;;;;15.50;11.93;;;;;;;16.63;100.00;101147.16;5097446;28;20519;-76
2023/09/08 01:15:10;;;;;;;17.50;12.07;;;;;;;16.59;100.00;101137.94;5095981;28;20024;-75
2023/09/08 01:17:44;;;;;;;16.75;11.95;;;;;;;16.49;100.00;101141.00;5097307;28;20032;-76
2023/09/08 01:20:23;;;;;;;15.40;12.18;;;;;;;16.44;100.00;101136.00;5097164;28;20085;-75
2023/09/08 01:23:22;;;;;;;17.45;12.05;;;;;;;16.43;100.00;101137.28;5079034;28;20032;-75
2023/09/08 01:25:54;;;;;;;18.38;13.63;;;;;;;16.31;100.00;101131.94;5095954;28;20055;-76
2023/09/08 01:28:26;;;;;;;20.45;12.45;;;;;;;16.34;100.00;101139.59;5095982;28;20024;-76
2023/09/08 01:30:52;;;;;;;20.30;12.85;;;;;;;16.25;100.00;101126.16;5094874;28;20039;-75
2023/09/08 01:33:19;;;;;;;20.15;13.90;;;;;;;16.41;100.00;101133.31;5095228;28;20023;-76
2023/09/08 01:35:46;;;;;;;22.23;12.88;;;;;;;16.38;100.00;101128.59;5095397;28;20024;-76
2023/09/08 01:38:11;;;;;;;19.15;13.60;;;;;;;16.35;100.00;101139.06;5093574;28;20572;-76
2023/09/08 01:40:40;;;;;;;17.27;13.82;;;;;;;16.32;100.00;101137.19;5093866;28;20115;-76
2023/09/08 01:43:06;;;;;;;16.15;12.88;;;;;;;16.06;100.00;101131.47;5095539;28;20032;-76
2023/09/08 01:45:36;;;;;;;17.15;12.75;;;;;;;16.01;100.00;101131.44;5094996;28;20020;-75
2023/09/08 01:48:12;;;;;;;20.20;12.88;;;;;;;15.95;100.00;101125.66;5095662;28;20071;-76
2023/09/08 01:50:37;;;;;;;15.95;12.77;;;;;;;15.95;100.00;101131.41;5094967;28;20032;-75
2023/09/08 01:53:05;;;;;;;16.98;13.38;;;;;;;15.75;100.00;101108.44;5094131;28;20058;-76
2023/09/08 01:55:31;;;;;;;17.67;13.82;;;;;;;15.89;100.00;101136.31;5094451;28;20031;-76
2023/09/08 01:58:07;;;;;;;19.33;13.15;;;;;;;15.88;100.00;101134.75;5094334;28;20031;-75
2023/09/08 02:00:33;;;;;;;17.27;13.32;;;;;;;15.85;100.00;101132.88;5095688;28;20024;-76
2023/09/08 02:02:59;;;;;;;20.38;13.45;;;;;;;15.82;100.00;101133.88;5095851;28;20043;-77
2023/09/08 02:05:27;;;;;;;17.88;13.45;;;;;;;15.82;100.00;101135.97;5096609;28;20104;-76
2023/09/08 02:07:53;;;;;;;18.65;13.25;;;;;;;15.94;100.00;101146.31;5096289;28;20492;-76
2023/09/08 02:10:20;;;;;;;18.73;13.45;;;;;;;15.94;100.00;101137.69;5077359;28;20029;-76
2023/09/08 02:12:46;;;;;;;16.70;13.57;;;;;;;15.95;100.00;101134.28;5095666;28;20398;-75
2023/09/08 02:15:11;;;;;;;17.42;13.02;;;;;;;15.92;100.00;101137.38;5095051;28;20060;-76
2023/09/08 02:17:37;;;;;;;15.95;13.38;;;;;;;15.84;100.00;101139.16;5096292;28;20031;-76
2023/09/08 02:20:04;;;;;;;18.50;14.68;;;;;;;15.83;100.00;101143.34;5095671;28;20036;-76
2023/09/08 02:22:29;;;;;;;19.10;14.18;;;;;;;15.80;100.00;101129.94;5096136;28;20016;-75
2023/09/08 02:24:57;;;;;;;20.67;13.90;;;;;;;15.86;100.00;101136.56;5095902;28;20028;-76
2023/09/08 02:27:24;;;;;;;17.70;14.02;;;;;;;15.88;100.00;101128.97;5095836;28;20028;-76
2023/09/08 02:29:50;;;;;;;18.92;14.10;;;;;;;15.83;100.00;101134.69;5077635;28;20123;-75
2023/09/08 02:32:17;;;;;;;19.15;14.15;;;;;;;15.82;100.00;101135.97;5096122;28;20066;-76
2023/09/08 02:34:43;;;;;;;19.85;15.32;;;;;;;15.76;100.00;101133.03;5094453;28;20043;-76
2023/09/08 02:37:09;;;;;;;23.33;14.40;;;;;;;15.74;100.00;101141.41;5094369;28;20504;-75
2023/09/08 02:39:35;;;;;;;21.05;15.15;;;;;;;15.68;100.00;101131.91;5077470;28;20051;-75
2023/09/08 02:42:03;;;;;;;19.25;13.77;;;;;;;15.68;100.00;101134.81;5094247;28;20055;-76
2023/09/08 02:44:29;;;;;;;21.65;15.93;;;;;;;15.70;100.00;101126.44;5094353;28;20039;-76
2023/09/08 02:46:55;;;;;;;22.17;15.68;;;;;;;15.68;100.00;101135.59;5094360;28;20043;-75
2023/09/08 02:49:21;;;;;;;23.58;15.70;;;;;;;15.65;100.00;101127.97;5095740;28;20024;-77
2023/09/08 02:51:47;;;;;;;21.80;15.88;;;;;;;15.65;100.00;101127.19;5095554;28;20097;-75
2023/09/08 02:54:15;;;;;;;25.85;16.98;;;;;;;15.63;100.00;101129.78;5095375;28;20016;-77
2023/09/08 02:56:40;;;;;;;26.05;16.13;;;;;;;15.61;100.00;101126.63;5094442;28;20016;-76
2023/09/08 02:59:08;;;;;;;22.13;15.80;;;;;;;15.58;100.00;101128.38;5060554;28;20050;-75
2023/09/08 03:01:34;;;;;;;24.00;16.08;;;;;;;15.54;100.00;101127.03;5095288;28;20026;-76
2023/09/08 03:04:00;;;;;;;22.52;15.93;;;;;;;15.52;100.00;101120.97;5095367;28;20024;-74
2023/09/08 03:06:26;;;;;;;23.02;15.38;;;;;;;15.50;100.00;101115.75;5094034;28;20035;-75
2023/09/08 03:08:53;;;;;;;23.77;16.73;;;;;;;15.50;100.00;101123.59;5095179;28;20354;-75
2023/09/08 03:11:19;;;;;;;21.08;15.48;;;;;;;15.45;100.00;101110.72;5094692;28;20438;-75
2023/09/08 03:13:46;;;;;;;25.88;16.98;;;;;;;15.51;100.00;101117.34;5095251;28;20123;-75
2023/09/08 03:16:12;;;;;;;21.92;15.38;;;;;;;15.51;100.00;101113.66;5095015;28;20035;-76
2023/09/08 03:18:38;;;;;;;21.40;16.20;;;;;;;15.50;100.00;101114.94;5093416;28;20044;-75
2023/09/08 03:21:13;;;;;;;20.95;15.18;;;;;;;15.35;100.00;101103.53;5093627;28;20089;-75
2023/09/08 03:23:42;;;;;;;20.98;15.98;;;;;;;15.45;100.00;101113.59;5094563;28;20031;-76
2023/09/08 03:26:10;;;;;;;22.02;15.85;;;;;;;15.38;100.00;101116.09;5076926;28;20161;-76
2023/09/08 03:28:37;;;;;;;21.50;16.73;;;;;;;15.40;100.00;101128.72;5093577;28;20047;-76
2023/09/08 03:31:03;;;;;;;27.25;15.57;;;;;;;15.36;100.00;101127.38;5076756;28;20036;-76
2023/09/08 03:33:28;;;;;;;23.98;16.95;;;;;;;15.32;100.00;101133.31;5093447;28;20046;-76
2023/09/08 03:35:55;;;;;;;23.08;17.50;;;;;;;15.00;100.00;101089.25;5094560;28;20504;-76
2023/09/08 03:38:21;;;;;;;21.65;17.10;;;;;;;15.20;100.00;101134.50;5076466;28;20020;-74
2023/09/08 03:40:48;;;;;;;24.67;17.38;;;;;;;15.17;100.00;101129.75;5093066;28;20019;-75
2023/09/08 03:43:22;;;;;;;23.13;16.15;;;;;;;15.15;100.00;101124.50;5094678;28;20054;-75
2023/09/08 03:45:48;;;;;;;22.67;16.48;;;;;;;15.09;100.00;101119.97;5093400;28;20027;-76
2023/09/08 03:48:14;;;;;;;25.52;17.90;;;;;;;15.11;100.00;101134.66;5094313;28;20027;-75
2023/09/08 03:50:41;;;;;;;24.05;17.55;;;;;;;15.10;100.00;101125.22;5094085;28;20031;-76
2023/09/08 03:53:07;;;;;;;24.27;16.90;;;;;;;15.06;100.00;101121.78;5093189;28;20020;-75
2023/09/08 03:55:33;;;;;;;23.35;15.88;;;;;;;15.04;100.00;101133.00;5092951;28;20034;-76
2023/09/08 03:58:00;;;;;;;20.75;17.98;;;;;;;14.98;100.00;101125.56;5093762;28;20105;-76
2023/09/08 04:00:28;;;;;;;24.13;17.08;;;;;;;14.88;100.00;101109.75;5093880;28;20035;-76
2023/09/08 04:02:55;;;;;;;22.23;16.77;;;;;;;14.90;100.00;101121.56;5092887;28;20051;-76
2023/09/08 04:05:23;;;;;;;24.10;16.40;;;;;;;14.86;100.00;101124.66;5094467;28;20035;-76
2023/09/08 04:07:49;;;;;;;26.88;16.98;;;;;;;14.84;100.00;101128.03;5094309;28;20041;-76
2023/09/08 04:10:15;;;;;;;22.27;16.70;;;;;;;14.75;100.00;101115.88;5092883;28;20028;-75
2023/09/08 04:12:49;;;;;;;25.70;15.95;;;;;;;14.72;100.00;101120.56;5094242;28;20024;-75
2023/09/08 04:15:16;;;;;;;26.67;17.65;;;;;;;14.58;100.00;101107.00;5093015;28;20036;-76
2023/09/08 04:17:41;;;;;;;27.90;17.08;;;;;;;14.71;100.00;101127.59;5093900;28;20553;-75
2023/09/08 04:20:08;;;;;;;26.13;17.70;;;;;;;14.69;100.00;101130.19;5093863;28;20107;-77
2023/09/08 04:22:35;;;;;;;24.40;16.42;;;;;;;14.65;100.00;101123.84;5093686;28;20027;-75
2023/09/08 04:25:02;;;;;;;21.17;16.42;;;;;;;14.65;100.00;101135.34;5092480;28;20032;-75
2023/09/08 04:27:29;;;;;;;24.70;16.33;;;;;;;14.69;100.00;101126.50;5075835;28;20035;-76
2023/09/08 04:29:56;;;;;;;24.13;15.82;;;;;;;14.65;100.00;101108.66;5075418;28;20085;-75
2023/09/08 04:32:37;;;;;;;25.40;18.23;;;;;;;14.67;100.00;101124.16;5093477;28;20495;-76
2023/09/08 04:35:05;;;;;;;21.73;17.90;;;;;;;14.67;100.00;101120.47;5093129;28;20089;-75
2023/09/08 04:37:32;;;;;;;26.23;18.88;;;;;;;14.68;100.00;101131.47;5075437;28;20028;-76
2023/09/08 04:39:58;;;;;;;27.52;19.30;;;;;;;14.69;100.00;101126.50;5092379;28;20024;-76
2023/09/08 04:42:38;;;;;;;25.38;18.48;;;;;;;14.76;100.00;101131.84;5091802;28;20060;-75
2023/09/08 04:45:05;;;;;;;26.65;18.00;;;;;;;14.93;100.00;101132.06;5092005;28;20521;-75
2023/09/08 04:47:31;;;;;;;22.77;17.60;;;;;;;14.82;100.00;101124.09;5093958;28;20032;-75
2023/09/08 04:49:57;;;;;;;23.50;17.48;;;;;;;14.65;100.00;101097.16;5058544;28;20473;-79
2023/09/08 04:52:23;;;;;;;25.55;18.00;;;;;;;14.81;100.00;101128.25;5108576;28;20020;-77
2023/09/08 04:54:48;;;;;;;21.98;18.17;;;;;;;14.82;100.00;101130.59;5113807;28;20482;-78
2023/09/08 04:57:16;;;;;;;22.63;17.75;;;;;;;14.89;100.00;101120.75;5078790;28;20585;-78
2023/09/08 04:59:42;;;;;;;23.67;17.58;;;;;;;14.94;100.00;101130.75;5095808;28;20528;-81
2023/09/08 05:02:08;;;;;;;24.60;17.92;;;;;;;14.97;100.00;101124.78;5113898;28;20107;-77
2023/09/08 05:04:36;;;;;;;25.42;16.83;;;;;;;15.05;100.00;101130.91;5113654;28;20100;-76
2023/09/08 05:07:01;;;;;;;23.98;17.25;;;;;;;15.08;100.00;101127.81;5112531;28;20520;-77
2023/09/08 05:09:28;;;;;;;27.50;17.88;;;;;;;15.08;100.00;101127.81;5112423;28;20110;-74
2023/09/08 05:11:53;;;;;;;23.08;16.52;;;;;;;15.05;100.00;101130.91;5113828;28;20032;-75
2023/09/08 05:14:19;;;;;;;24.67;15.63;;;;;;;15.08;100.00;101139.31;5113829;28;20081;-76
2023/09/08 05:16:49;;;;;;;22.20;16.02;;;;;;;15.10;100.00;101131.00;5113712;28;20096;-79
2023/09/08 05:19:15;;;;;;;22.30;16.38;;;;;;;15.00;100.00;101123.78;5113347;28;20038;-79
2023/09/08 05:21:43;;;;;;;22.67;16.70;;;;;;;15.09;100.00;101125.72;5112173;28;20027;-73
2023/09/08 05:24:12;;;;;;;22.58;15.15;;;;;;;15.09;100.00;101132.28;5113471;28;20034;-74
2023/09/08 05:26:41;;;;;;;23.02;15.63;;;;;;;15.14;100.00;101131.56;5111130;28;20027;-72
2023/09/08 05:29:06;;;;;;;20.25;15.10;;;;;;;15.20;100.00;101128.75;5111339;28;20361;-74
2023/09/08 05:31:32;;;;;;;22.55;16.35;;;;;;;15.25;100.00;101134.56;5112297;28;20030;-74
2023/09/08 05:33:58;;;;;;;21.23;16.58;;;;;;;15.33;100.00;101137.00;5113406;28;20031;-75
2023/09/08 05:36:25;;;;;;;20.83;15.05;;;;;;;15.47;100.00;101136.09;5112205;28;20023;-74
2023/09/08 05:38:51;;;;;;;21.55;15.25;;;;;;;15.59;100.00;101137.84;5113625;28;20012;-75
2023/09/08 05:41:16;;;;;;;19.45;14.75;;;;;;;15.67;100.00;101141.84;5113262;28;20039;-73
2023/09/08 05:43:42;;;;;;;24.02;15.05;;;;;;;15.74;100.00;101143.50;5113274;28;20053;-75
2023/09/08 05:46:08;;;;;;;23.00;16.10;;;;;;;15.86;100.00;101142.34;5114029;28;20023;-76
2023/09/08 05:48:34;;;;;;;27.67;15.00;;;;;;;15.92;100.00;101146.03;5115766;28;20024;-74
2023/09/08 05:50:59;;;;;;;22.92;15.63;;;;;;;15.93;100.00;101148.41;5097678;28;20027;-74
2023/09/08 05:53:25;;;;;;;20.70;15.43;;;;;;;15.87;100.00;101126.59;5115819;28;20481;-74
2023/09/08 05:55:52;;;;;;;22.17;15.77;;;;;;;16.10;100.00;101143.59;5097659;28;20021;-74
2023/09/08 05:58:24;;;;;;;22.80;15.75;;;;;;;16.23;100.00;101145.25;5116005;28;20039;-76
2023/09/08 06:00:55;;;;;;;24.20;14.70;;;;;;;16.33;100.00;101140.88;5116170;28;20020;-74
2023/09/08 06:03:29;;;;;;;21.65;16.30;;;;;;;16.50;100.00;101145.47;5116662;28;20027;-75
2023/09/08 06:05:58;;;;;;;22.55;15.45;;;;;;;16.65;100.00;101153.97;5115778;28;20023;-74
2023/09/08 06:08:24;;;;;;;23.80;15.23;;;;;;;16.73;100.00;101134.91;5114636;28;20487;-74
2023/09/08 06:10:50;;;;;;;21.63;15.63;;;;;;;16.95;100.00;101146.53;5115384;28;20020;-74
2023/09/08 06:13:15;;;;;;;21.95;15.60;;;;;;;17.12;100.00;101145.84;5114414;28;20092;-74
2023/09/08 06:15:56;;;;;;;25.20;15.95;;;;;;;17.28;100.00;101137.25;5114655;28;20041;-75
2023/09/08 06:18:22;;;;;;;19.27;12.82;;;;;;;17.54;100.00;101131.31;5112648;28;20059;-74
2023/09/08 06:20:47;;;;;;;14.40;11.48;;;;;;;18.33;100.00;101132.97;5111354;28;20062;-74
2023/09/08 06:23:13;;;;;;;21.40;12.60;;;;;;;19.52;100.00;101122.06;5079070;28;20026;-75
2023/09/08 06:25:40;;;;;;;19.15;11.45;;;;;;;20.69;100.00;101115.31;5090388;28;20053;-74
2023/09/08 06:28:10;;;;;;;15.55;11.38;;;;;;;21.96;100.00;101123.72;5110230;28;20546;-75
2023/09/08 06:30:56;;;;;;;20.88;11.25;;;;;;;23.14;100.00;101099.06;5104707;28;20028;-73
2023/09/08 06:33:23;;;;;;;15.30;12.00;;;;;;;24.05;100.00;101091.41;5095665;28;20412;-74
2023/09/08 06:35:53;;;;;;;18.05;11.02;;;;;;;25.05;100.00;101089.47;5095464;28;20119;-75
2023/09/08 06:38:21;;;;;;;16.27;12.63;;;;;;;25.80;100.00;101090.38;5112573;28;20533;-80
2023/09/08 06:40:49;;;;;;;16.95;12.45;;;;;;;26.14;100.00;101075.41;5115709;28;20028;-80
2023/09/08 06:43:24;;;;;;;14.80;11.30;;;;;;;26.60;100.00;101084.97;5116380;28;20484;-81
2023/09/08 06:45:50;;;;;;;17.13;11.73;;;;;;;27.23;100.00;101076.25;5116392;28;20031;-79
2023/09/08 06:48:24;;;;;;;14.55;11.95;;;;;;;27.75;100.00;101083.28;5116729;28;20043;-82
2023/09/08 06:50:54;;;;;;;19.65;12.18;;;;;;;28.38;100.00;101075.00;5115984;28;20030;-81
2023/09/08 06:53:19;;;;;;;16.98;11.77;;;;;;;28.99;100.00;101074.41;5116291;28;20019;-81
2023/09/08 06:55:45;;;;;;;16.15;12.45;;;;;;;29.47;100.00;101080.72;5115669;28;20399;-82
2023/09/08 06:58:11;;;;;;;14.77;12.48;;;;;;;29.93;100.00;101078.69;5115800;28;20035;-83
2023/09/08 07:00:39;;;;;;;18.52;12.70;;;;;;;30.20;97.75;101081.66;5115622;28;20127;-83
2023/09/08 07:03:05;;;;;;;18.08;12.50;;;;;;;30.35;100.00;101081.41;5110691;28;20119;-82
2023/09/08 07:05:32;;;;;;;15.48;12.07;;;;;;;30.79;97.84;101080.47;5108407;28;20103;-82
2023/09/08 07:07:57;;;;;;;14.90;11.88;;;;;;;31.42;97.11;101086.88;5099182;28;20036;-81
2023/09/08 07:10:25;;;;;;;13.50;11.10;;;;;;;31.45;88.06;101087.03;5106337;28;20039;-83
2023/09/08 07:12:52;;;;;;;19.60;13.07;;;;;;;31.71;87.04;101074.25;5115689;28;20376;-81
2023/09/08 07:15:18;;;;;;;15.13;13.52;;;;;;;31.66;84.24;101084.19;5115664;28;20034;-83
2023/09/08 07:17:45;;;;;;;20.02;12.95;;;;;;;31.75;82.65;101086.38;5114624;28;20028;-82
2023/09/08 07:20:11;;;;;;;21.48;13.88;;;;;;;31.89;84.28;101074.84;5115254;28;20027;-82
2023/09/08 07:22:37;;;;;;;18.08;14.63;;;;;;;32.02;81.42;101078.06;5114568;28;20020;-84
2023/09/08 07:25:16;;;;;;;18.58;13.50;;;;;;;32.29;84.13;101077.81;5114175;28;20530;-83
2023/09/08 07:27:41;;;;;;;17.27;14.80;;;;;;;32.52;80.08;101078.00;5113493;28;20032;-84
2023/09/08 07:30:07;;;;;;;15.75;14.15;;;;;;;32.18;77.99;101061.53;5103578;28;20027;-85
2023/09/08 07:32:33;;;;;;;17.95;14.73;;;;;;;32.15;79.40;101077.53;5104707;28;20053;-85
2023/09/08 07:35:00;;;;;;;18.23;14.23;;;;;;;32.48;81.53;101077.72;5109556;28;20016;-85
2023/09/08 07:37:25;;;;;;;20.05;14.50;;;;;;;32.61;74.95;101085.28;5113433;28;20066;-82
2023/09/08 07:40:09;;;;;;;18.70;14.10;;;;;;;32.91;76.61;101084.50;5114203;28;20063;-83
2023/09/08 07:42:41;;;;;;;19.23;14.52;;;;;;;33.04;75.60;101038.69;5095564;28;20041;-80
2023/09/08 07:45:09;;;;;;;18.08;15.02;;;;;;;33.21;71.48;101076.16;5093675;28;20024;-85
2023/09/08 07:47:38;;;;;;;18.17;14.60;;;;;;;33.06;76.67;101084.06;5108951;28;20027;-85
2023/09/08 07:50:27;;;;;;;21.05;15.40;;;;;;;33.16;71.96;101071.34;5096260;28;20034;-83
2023/09/08 07:52:56;;;;;;;20.08;14.80;;;;;;;33.45;76.62;101086.72;5112762;28;20388;-84
2023/09/08 07:55:28;;;;;;;21.58;15.52;;;;;;;33.36;73.93;101085.41;5114876;28;20039;-85
2023/09/08 07:57:54;;;;;;;20.30;16.13;;;;;;;33.56;74.84;101077.09;5114115;28;20023;-86
2023/09/08 08:00:20;;;;;;;18.58;15.43;;;;;;;33.57;71.80;101078.66;5113445;28;20034;-85
2023/09/08 08:02:51;;;;;;;20.58;15.23;;;;;;;33.56;72.59;101071.16;5113802;28;20023;-86
2023/09/08 08:05:17;;;;;;;22.60;15.75;;;;;;;33.65;70.17;101078.41;5114852;28;20045;-85
2023/09/08 08:07:44;;;;;;;20.98;15.68;;;;;;;33.36;70.37;101064.66;5114987;28;20034;-86
2023/09/08 08:10:11;;;;;;;17.40;15.60;;;;;;;33.05;74.33;101073.63;5112348;28;20135;-84
2023/09/08 08:12:37;;;;;;;16.88;14.80;;;;;;;33.06;74.42;101065.50;5113059;28;20039;-83
2023/09/08 08:15:12;;;;;;;18.90;14.85;;;;;;;33.00;74.38;101071.00;5079304;28;20050;-85
2023/09/08 08:17:38;;;;;;;17.15;14.77;;;;;;;33.34;73.65;101066.69;5114871;28;20043;-86
2023/09/08 08:20:09;;;;;;;19.00;15.77;;;;;;;33.34;69.26;101072.63;5096428;28;20055;-86
2023/09/08 08:22:35;;;;;;;19.65;13.18;;;;;;;33.45;72.07;101072.66;5113208;28;20031;-84
2023/09/08 08:25:03;;;;;;;19.95;13.18;;;;;;;33.65;71.63;101049.53;5114618;28;20562;-85
2023/09/08 08:27:32;;;;;;;18.15;13.82;;;;;;;34.11;66.53;101068.84;5112793;28;20031;-85
2023/09/08 08:30:00;;;;;;;19.25;14.50;;;;;;;34.09;70.58;101059.81;5112903;28;20043;-85
2023/09/08 08:32:34;;;;;;;19.30;13.27;;;;;;;34.13;67.09;101063.03;5114197;28;20032;-86
2023/09/08 08:35:01;;;;;;;16.35;14.05;;;;;;;34.14;68.72;101059.47;5114267;28;20039;-85
2023/09/08 08:37:26;;;;;;;15.20;12.68;;;;;;;33.94;69.89;101055.94;5114027;28;20027;-85
2023/09/08 08:39:53;;;;;;;15.65;11.75;;;;;;;33.96;73.57;101057.47;5113827;28;20032;-84
2023/09/08 08:42:22;;;;;;;17.90;12.82;;;;;;;33.82;69.78;101051.41;5095641;28;20047;-85
2023/09/08 08:44:47;;;;;;;16.50;12.80;;;;;;;33.97;68.26;101062.00;5113128;28;20055;-85
2023/09/08 08:47:15;;;;;;;18.30;11.95;;;;;;;33.72;69.28;101054.44;5095906;28;20051;-84
2023/09/08 08:49:51;;;;;;;15.07;12.98;;;;;;;33.78;67.15;101060.78;5095810;28;20103;-85
2023/09/08 08:52:17;;;;;;;18.55;11.50;;;;;;;33.87;71.37;101053.97;5113910;28;20031;-84
2023/09/08 08:54:45;;;;;;;14.95;11.20;;;;;;;33.83;69.22;101055.91;5114426;28;20060;-85
2023/09/08 08:57:14;;;;;;;16.92;11.85;;;;;;;33.52;70.20;101053.09;5112697;28;20102;-84
2023/09/08 08:59:41;;;;;;;14.23;11.52;;;;;;;33.53;71.51;101048.72;5095858;28;20469;-85
2023/09/08 09:02:16;;;;;;;15.90;11.32;;;;;;;33.67;72.16;101045.97;5113054;28;20024;-85
2023/09/08 09:04:42;;;;;;;13.68;11.52;;;;;;;33.78;72.28;101042.22;5112570;28;20035;-85
2023/09/08 09:07:09;;;;;;;21.10;12.05;;;;;;;33.45;70.51;101042.25;5113913;28;20081;-86
2023/09/08 09:09:36;;;;;;;13.18;10.65;;;;;;;33.36;71.69;101037.19;5112555;28;20031;-83
2023/09/08 09:12:03;;;;;;;15.88;9.85;;;;;;;33.36;73.33;101025.34;5112651;28;20469;-85
2023/09/08 09:14:33;;;;;;;16.25;10.27;;;;;;;33.27;71.14;101017.31;5113828;28;20036;-85
2023/09/08 09:17:01;;;;;;;12.27;10.20;;;;;;;32.92;70.92;101034.91;5095824;28;20452;-85
2023/09/08 09:19:28;;;;;;;12.30;9.80;;;;;;;32.48;74.61;101021.50;5114102;28;20019;-86
2023/09/08 09:21:55;;;;;;;15.38;10.50;;;;;;;32.50;75.78;101036.41;5117972;28;20076;-85
2023/09/08 09:24:38;;;;;;;13.95;9.93;;;;;;;32.51;76.88;101026.13;5118486;28;20016;-85
2023/09/08 09:27:08;;;;;;;16.23;10.48;;;;;;;32.39;77.63;101021.56;5117989;28;20096;-85
2023/09/08 09:29:34;;;;;;;14.00;10.02;;;;;;;32.30;82.79;101016.44;5083445;28;20083;-84
2023/09/08 09:32:10;;;;;;;12.25;8.90;;;;;;;32.25;77.98;101019.13;5100034;28;20036;-84
2023/09/08 09:34:48;;;;;;;12.00;10.02;;;;;;;31.90;79.00;101014.28;5121092;27;20083;-81
2023/09/08 09:37:14;;;;;;;11.50;8.70;;;;;;;31.75;80.58;101012.47;5120171;28;20046;-84
2023/09/08 09:39:50;;;;;;;13.68;9.65;;;;;;;31.60;80.84;101006.91;5118987;28;20031;-84
2023/09/08 09:42:17;;;;;;;15.57;9.52;;;;;;;31.51;81.09;101011.41;5117885;28;20059;-85
2023/09/08 09:44:43;;;;;;;20.02;10.35;;;;;;;31.36;82.57;101018.44;5099312;28;20036;-85
2023/09/08 09:47:11;;;;;;;22.08;10.13;;;;;;;31.08;84.70;100998.56;5116425;28;20043;-85
2023/09/08 09:49:46;;;;;;;14.68;9.13;;;;;;;31.10;84.29;101006.81;5116417;28;20077;-85
2023/09/08 09:52:13;;;;;;;17.95;9.85;;;;;;;31.10;85.36;101006.81;5099720;28;20027;-84
2023/09/08 09:54:41;;;;;;;13.95;9.60;;;;;;;31.10;86.00;101001.69;5116485;28;20031;-84
2023/09/08 09:57:10;;;;;;;14.35;10.80;;;;;;;31.11;86.56;100991.41;5099137;28;20032;-84
2023/09/08 09:59:36;;;;;;;14.60;9.68;;;;;;;30.98;86.32;101004.47;5116563;28;20019;-86
2023/09/08 10:02:03;;;;;;;13.85;8.85;;;;;;;30.60;87.25;100998.53;5116358;28;20053;-84
2023/09/08 10:04:29;;;;;;;17.90;9.98;;;;;;;30.54;89.00;100998.84;5116027;28;20027;-85
2023/09/08 10:06:57;;;;;;;12.80;9.75;;;;;;;30.44;89.67;100989.19;5115912;28;20423;-84
2023/09/08 10:09:23;;;;;;;14.15;8.90;;;;;;;30.31;90.19;100997.72;5117435;28;20465;-85
2023/09/08 10:11:49;;;;;;;14.85;9.02;;;;;;;30.21;91.96;100985.91;5116099;28;20027;-86
2023/09/08 10:14:19;;;;;;;13.32;8.77;;;;;;;29.99;92.68;100989.97;5116270;28;20082;-85
2023/09/08 10:16:49;;;;;;;17.50;8.77;;;;;;;29.97;95.28;100981.00;5098835;28;20027;-85
2023/09/08 10:19:17;;;;;;;10.37;8.23;;;;;;;30.02;93.80;100983.63;5115870;28;20027;-85
2023/09/08 10:21:46;;;;;;;15.20;8.23;;;;;;;30.04;90.56;100991.84;5098537;28;20495;-85
2023/09/08 10:24:22;;;;;;;18.52;8.93;;;;;;;30.05;90.91;100984.56;5116065;28;20080;-84
2023/09/08 10:27:08;;;;;;;11.95;8.50;;;;;;;29.95;92.03;100987.50;5115583;28;20477;-86
2023/09/08 10:29:35;;;;;;;8.80;7.90;;;;;;;29.71;89.87;100980.41;5116879;28;20023;-85
2023/09/08 10:32:01;;;;;;;18.83;8.02;;;;;;;29.52;90.68;100994.25;5114210;28;20055;-85
2023/09/08 10:34:30;;;;;;;9.23;7.18;;;;;;;29.37;93.05;100983.47;5098547;28;20055;-86
2023/09/08 10:36:55;;;;;;;15.43;8.10;;;;;;;29.32;94.18;100971.94;5115686;28;20024;-85
2023/09/08 10:39:32;;;;;;;13.52;8.25;;;;;;;29.32;95.58;100984.50;5098262;28;20023;-85
2023/09/08 10:42:19;;;;;;;13.85;8.23;;;;;;;29.31;96.11;100974.13;5116608;28;20043;-84
2023/09/08 10:44:49;;;;;;;13.35;7.97;;;;;;;29.22;94.26;100972.69;5116643;28;20027;-86
2023/09/08 10:47:22;;;;;;;14.50;8.00;;;;;;;29.07;94.54;100969.16;5116572;27;20055;-85
2023/09/08 10:49:53;;;;;;;12.10;8.05;;;;;;;29.03;96.46;100972.53;5097805;28;20027;-85
2023/09/08 10:52:24;;;;;;;16.53;8.23;;;;;;;29.03;98.22;100960.00;5115165;28;20412;-84
2023/09/08 10:54:53;;;;;;;11.48;8.20;;;;;;;29.05;98.97;100957.19;5116449;28;20390;-84
2023/09/08 10:57:22;;;;;;;13.05;7.90;;;;;;;29.10;97.28;100959.09;5116255;28;20028;-83
2023/09/08 10:59:55;;;;;;;9.82;7.97;;;;;;;29.01;99.14;100956.84;5114952;28;20028;-84
2023/09/08 11:02:42;;;;;;;13.13;8.63;;;;;;;28.81;99.61;100956.69;5116180;28;20560;-85
2023/09/08 11:05:13;;;;;;;13.90;8.73;;;;;;;28.65;100.00;100954.53;5116749;28;20059;-85
2023/09/08 11:07:39;;;;;;;15.20;8.30;;;;;;;28.53;100.00;100956.44;5114554;28;20425;-85
2023/09/08 11:10:06;;;;;;;12.93;8.23;;;;;;;28.53;100.00;100957.22;5080953;28;20039;-85